Time;durP1;ratioP1;P1;durP2;ratioP2;P2;SDS_P1;SDS_P2;PMS_P1;PMS_P2;Temp;Humidity;BMP_temperature;BMP_pressure;BME280_temperature;BME280_humidity;BME280_pressure;Samples;Min_cycle;Max_cycle;Signal;HPM_P1;HPM_P2
2022/03/27 00:02:10;;;;;;;11.10;2.10;;;;;;;4.11;58.61;101911.34;10257274;28;20246;-71
2022/03/27 00:07:15;;;;;;;8.33;1.87;;;;;;;4.09;59.21;101914.69;10257269;29;20303;-71
2022/03/27 00:12:19;;;;;;;6.90;2.07;;;;;;;3.99;60.27;101921.13;10257680;29;20219;-74
2022/03/27 00:17:23;;;;;;;6.63;1.90;;;;;;;3.99;60.26;101922.81;10257410;28;20236;-73
2022/03/27 00:22:27;;;;;;;9.30;2.60;;;;;;;3.94;59.93;101926.88;10258341;28;20216;-70
2022/03/27 00:27:31;;;;;;;7.23;1.90;;;;;;;3.94;59.39;101921.75;10270637;29;20220;-71
2022/03/27 00:32:34;;;;;;;5.57;2.00;;;;;;;3.86;59.50;101926.59;10269969;29;20223;-73
2022/03/27 00:37:39;;;;;;;6.50;1.57;;;;;;;3.91;59.17;101919.94;10266165;28;20234;-74
2022/03/27 00:42:43;;;;;;;5.97;1.53;;;;;;;3.84;58.99;101920.50;10265613;28;20224;-70
2022/03/27 00:47:46;;;;;;;9.00;2.13;;;;;;;3.85;59.18;101916.25;10264786;28;20216;-70
2022/03/27 00:52:53;;;;;;;6.70;1.97;;;;;;;3.84;59.12;101917.94;10264307;29;20227;-70
2022/03/27 00:57:56;;;;;;;4.83;1.60;;;;;;;3.70;59.80;101919.03;10265946;28;20220;-71
2022/03/27 01:03:02;;;;;;;6.80;2.00;;;;;;;3.73;59.57;101914.03;10264699;29;20763;-70
2022/03/27 01:08:09;;;;;;;8.40;2.00;;;;;;;3.68;60.05;101923.22;10267634;28;20606;-71
2022/03/27 01:13:18;;;;;;;5.80;2.07;;;;;;;3.69;59.94;101918.97;10263403;29;20286;-69
2022/03/27 01:18:22;;;;;;;5.33;1.63;;;;;;;3.66;60.18;101914.59;10262654;29;20246;-71
2022/03/27 01:23:26;;;;;;;5.87;1.60;;;;;;;3.64;60.56;101921.38;10263516;28;20231;-70
2022/03/27 01:28:29;;;;;;;6.33;1.50;;;;;;;3.67;60.32;101918.91;10262914;28;20303;-73
2022/03/27 01:33:33;;;;;;;5.93;1.40;;;;;;;3.63;60.40;101922.16;10264855;29;20220;-72
2022/03/27 01:38:37;;;;;;;7.50;1.90;;;;;;;3.60;60.87;101932.31;10262850;28;20228;-69
2022/03/27 01:43:41;;;;;;;6.07;1.83;;;;;;;3.55;61.15;101929.53;10262990;28;20216;-70
2022/03/27 01:48:44;;;;;;;6.33;2.37;;;;;;;3.50;60.76;101931.00;10263612;29;20220;-70
2022/03/27 01:53:49;;;;;;;9.73;2.23;;;;;;;3.50;60.74;101937.84;10263062;29;20228;-70
2022/03/27 01:58:53;;;;;;;4.83;2.00;;;;;;;3.44;60.99;101935.00;10261765;28;20224;-70
2022/03/27 02:03:56;;;;;;;8.17;1.93;;;;;;;3.48;60.21;101940.38;10260409;28;20359;-72
2022/03/27 02:09:01;;;;;;;6.67;2.17;;;;;;;3.43;60.54;101934.13;10262582;28;20224;-70
2022/03/27 02:14:04;;;;;;;7.50;1.73;;;;;;;3.41;60.33;101950.28;10259669;29;20554;-72
2022/03/27 02:19:09;;;;;;;8.47;1.87;;;;;;;3.31;61.18;101958.38;10259682;28;20236;-70
2022/03/27 02:24:14;;;;;;;7.73;1.47;;;;;;;3.36;60.67;101967.16;10259814;28;20230;-71
2022/03/27 02:29:19;;;;;;;8.20;1.70;;;;;;;3.29;61.09;101970.25;10259226;29;20654;-70
2022/03/27 02:34:23;;;;;;;7.77;1.80;;;;;;;3.35;61.13;101967.94;10259309;29;20299;-70
2022/03/27 02:39:27;;;;;;;8.20;1.70;;;;;;;3.35;60.96;101973.97;10261151;29;20230;-70
2022/03/27 02:44:30;;;;;;;10.50;1.60;;;;;;;3.30;60.81;101977.13;10258689;28;20227;-72
2022/03/27 02:49:34;;;;;;;5.13;1.43;;;;;;;3.26;61.12;101980.41;10257642;28;20235;-73
2022/03/27 02:54:39;;;;;;;7.43;2.00;;;;;;;3.22;61.34;101991.31;10258397;29;20306;-73
2022/03/27 02:59:42;;;;;;;7.53;1.97;;;;;;;3.19;61.45;101986.06;10258195;29;20220;-72
2022/03/27 03:04:46;;;;;;;4.80;1.57;;;;;;;3.19;62.08;101993.75;10256227;29;20240;-72
2022/03/27 03:09:51;;;;;;;5.27;1.80;;;;;;;3.09;62.16;101992.44;10254996;28;20650;-74
2022/03/27 03:14:56;;;;;;;9.47;1.73;;;;;;;3.11;62.36;101995.06;10260629;28;20546;-72
2022/03/27 03:20:00;;;;;;;7.03;2.20;;;;;;;3.10;61.83;102011.28;10254375;28;20224;-72
2022/03/27 03:25:06;;;;;;;5.30;1.67;;;;;;;3.06;61.80;102007.69;10255078;28;20204;-72
2022/03/27 03:30:10;;;;;;;7.10;2.30;;;;;;;3.03;62.30;102011.78;9911955;28;9999895;-71
2022/03/27 03:35:13;;;;;;;5.57;1.77;;;;;;;3.01;62.44;102009.16;10253879;29;20230;-72
2022/03/27 03:40:40;;;;;;;5.67;1.90;;;;;;;2.92;63.39;102029.25;10253853;29;20216;-72
2022/03/27 03:45:43;;;;;;;3.53;1.13;;;;;;;2.86;63.64;102031.53;10256025;29;20220;-70
2022/03/27 03:50:47;;;;;;;6.10;1.50;;;;;;;2.85;63.35;102036.56;10257208;29;20221;-70
2022/03/27 03:55:51;;;;;;;4.63;1.87;;;;;;;2.84;63.68;102043.38;10254773;28;20370;-69
2022/03/27 04:00:55;;;;;;;7.47;1.50;;;;;;;2.84;63.50;102055.31;10255965;28;20203;-70
2022/03/27 04:05:58;;;;;;;5.57;1.60;;;;;;;2.73;64.43;102059.94;10256011;29;20557;-71
2022/03/27 04:11:03;;;;;;;8.00;1.70;;;;;;;2.68;64.45;102052.81;10256203;29;20556;-69
2022/03/27 04:16:06;;;;;;;6.83;1.43;;;;;;;2.69;64.23;102060.59;10256329;29;20242;-73
2022/03/27 04:21:10;;;;;;;5.60;1.53;;;;;;;2.64;64.79;102066.31;10257780;29;20196;-71
2022/03/27 04:26:15;;;;;;;8.77;1.87;;;;;;;2.59;65.55;102066.06;10256208;28;20226;-73
2022/03/27 04:31:19;;;;;;;11.53;3.03;;;;;;;2.63;65.76;102065.41;10255746;29;20327;-69
2022/03/27 04:36:22;;;;;;;9.40;1.60;;;;;;;2.63;64.97;102073.09;10271352;28;20250;-72
2022/03/27 04:41:27;;;;;;;5.87;1.60;;;;;;;2.60;65.91;102077.19;10255679;29;20197;-69
2022/03/27 04:46:31;;;;;;;5.63;1.50;;;;;;;2.67;65.66;102089.50;10255878;29;20686;-72
2022/03/27 04:51:34;;;;;;;4.83;1.33;;;;;;;2.71;66.06;102104.25;10255609;28;20211;-69
2022/03/27 04:56:39;;;;;;;6.37;1.40;;;;;;;2.71;66.16;102099.97;10258829;29;20677;-72
2022/03/27 05:01:43;;;;;;;6.30;1.70;;;;;;;2.73;66.46;102097.47;10255550;29;20203;-72
2022/03/27 05:06:46;;;;;;;6.33;1.50;;;;;;;2.82;66.97;102103.06;10255339;29;20200;-70
2022/03/27 05:11:51;;;;;;;4.90;1.87;;;;;;;2.84;67.82;102111.72;10258960;28;20196;-69
2022/03/27 05:16:54;;;;;;;5.87;1.53;;;;;;;2.81;67.49;102117.59;10261997;29;20230;-72
2022/03/27 05:21:58;;;;;;;4.27;1.33;;;;;;;2.83;67.79;102140.75;10262016;29;20200;-71
2022/03/27 05:27:03;;;;;;;6.90;1.70;;;;;;;2.83;67.86;102138.19;10262187;29;20203;-73
2022/03/27 05:32:08;;;;;;;6.53;1.50;;;;;;;2.89;nan;102156.41;10271027;29;20283;-68
2022/03/27 05:37:11;;;;;;;7.83;1.43;;;;;;;2.94;67.48;102152.38;10261367;29;20223;-74
2022/03/27 05:42:16;;;;;;;5.00;1.63;;;;;;;2.99;67.77;102153.47;10261302;29;20200;-74
2022/03/27 05:47:19;;;;;;;4.53;1.20;;;;;;;3.08;68.56;102147.13;10258824;28;20206;-72
2022/03/27 05:52:22;;;;;;;4.20;1.20;;;;;;;3.15;68.16;102163.69;10257750;28;20243;-73
2022/03/27 05:57:27;;;;;;;5.60;1.53;;;;;;;3.22;68.65;102171.78;10257624;29;20370;-71
2022/03/27 06:02:31;;;;;;;5.00;1.47;;;;;;;3.40;67.54;102166.63;10257788;28;20239;-72
2022/03/27 06:07:42;;;;;;;9.63;1.60;;;;;;;3.53;67.11;102179.25;10261053;28;20722;-73
2022/03/27 06:12:47;;;;;;;4.13;1.43;;;;;;;3.71;66.16;102180.06;9914607;28;10000473;-72
2022/03/27 06:17:52;;;;;;;8.43;1.77;;;;;;;3.70;65.93;102196.31;10256475;29;20239;-73
2022/03/27 06:22:56;;;;;;;8.27;1.27;;;;;;;3.75;65.02;102199.97;10257860;28;20220;-70
2022/03/27 06:28:01;;;;;;;4.90;1.30;;;;;;;3.72;64.50;102204.97;10259325;29;20555;-70
2022/03/27 06:33:05;;;;;;;6.13;1.80;;;;;;;3.77;64.92;102212.88;10259205;28;20217;-70
2022/03/27 06:38:10;;;;;;;5.07;1.40;;;;;;;3.76;64.21;102213.69;10260818;29;20662;-68
2022/03/27 06:43:14;;;;;;;8.80;2.27;;;;;;;3.92;63.01;102219.59;10259445;29;20554;-69
2022/03/27 06:48:18;;;;;;;4.37;1.37;;;;;;;4.01;61.88;102209.75;10258477;29;20611;-68
2022/03/27 06:53:24;;;;;;;6.23;1.37;;;;;;;4.00;61.75;102223.44;10258144;28;20307;-68
2022/03/27 06:58:29;;;;;;;5.80;1.30;;;;;;;4.12;61.25;102216.28;10258237;29;20238;-71
2022/03/27 07:03:32;;;;;;;9.00;2.00;;;;;;;4.21;60.20;102226.09;10256040;28;20235;-72
2022/03/27 07:08:36;;;;;;;7.13;1.47;;;;;;;4.24;58.74;102237.38;10255150;28;20236;-71
2022/03/27 07:13:42;;;;;;;8.53;1.40;;;;;;;4.51;58.43;102230.91;10257697;29;20242;-72
2022/03/27 07:18:49;;;;;;;4.33;0.93;;;;;;;4.54;54.13;102223.31;10254245;28;20456;-71
2022/03/27 07:23:53;;;;;;;3.47;0.80;;;;;;;4.51;52.04;102235.16;10254772;28;20243;-72
2022/03/27 07:28:58;;;;;;;6.53;0.87;;;;;;;4.61;50.21;102234.75;10254531;28;20306;-72
2022/03/27 07:34:01;;;;;;;4.37;1.00;;;;;;;4.76;49.97;102239.69;10253208;28;20645;-71
2022/03/27 07:39:06;;;;;;;1.93;0.60;;;;;;;4.88;49.85;102240.22;10253802;28;20263;-71
2022/03/27 07:44:11;;;;;;;3.00;0.83;;;;;;;5.05;49.00;102234.09;10253885;28;20250;-70
2022/03/27 07:49:16;;;;;;;2.77;0.83;;;;;;;5.13;49.22;102241.31;9913133;28;9999775;-71
2022/03/27 07:54:20;;;;;;;2.63;0.90;;;;;;;5.25;46.64;102235.78;10252602;29;20359;-72
2022/03/27 07:59:25;;;;;;;3.80;0.80;;;;;;;5.35;45.36;102230.22;10252878;28;20220;-66
2022/03/27 08:04:28;;;;;;;5.60;3.17;;;;;;;5.30;44.26;102240.31;10252949;28;20577;-68
2022/03/27 08:09:32;;;;;;;5.70;0.87;;;;;;;5.43;42.78;102223.66;10252866;29;20238;-68
2022/03/27 08:14:37;;;;;;;5.23;1.40;;;;;;;5.45;42.71;102210.03;10252515;29;20220;-70
2022/03/27 08:19:41;;;;;;;3.93;0.90;;;;;;;5.65;41.34;102208.25;10254015;28;20228;-69
2022/03/27 08:24:45;;;;;;;2.23;0.83;;;;;;;5.87;40.89;102221.19;10252750;28;20276;-71
2022/03/27 08:29:50;;;;;;;1.90;0.70;;;;;;;5.96;41.60;102228.38;10252126;28;20566;-71
2022/03/27 08:34:53;;;;;;;3.53;0.80;;;;;;;6.12;41.47;102226.47;10252220;29;20291;-69
2022/03/27 08:39:58;;;;;;;5.73;0.70;;;;;;;6.22;40.63;102231.13;10252065;28;20230;-67
2022/03/27 08:45:03;;;;;;;2.03;0.57;;;;;;;6.41;38.93;102227.53;10255044;28;20886;-70
2022/03/27 08:50:15;;;;;;;3.60;0.67;;;;;;;6.56;38.89;102228.97;10259673;28;20240;-68
2022/03/27 08:55:21;;;;;;;3.33;0.50;;;;;;;6.98;37.29;102232.19;10260473;29;20280;-70
2022/03/27 09:00:28;;;;;;;2.27;0.57;;;;;;;7.17;37.10;102228.50;10260001;29;20224;-71
2022/03/27 09:05:35;;;;;;;2.93;0.73;;;;;;;7.67;38.09;102242.25;10259157;28;20586;-72
2022/03/27 09:10:40;;;;;;;3.97;1.10;;;;;;;7.89;39.03;102223.09;10260064;29;20732;-69
2022/03/27 09:15:46;;;;;;;2.43;0.50;;;;;;;8.01;38.78;102234.69;10260694;28;20318;-71
2022/03/27 09:20:52;;;;;;;2.07;0.70;;;;;;;8.04;37.76;102226.19;10259356;28;20673;-72
2022/03/27 09:25:57;;;;;;;3.10;0.80;;;;;;;8.56;37.64;102226.84;10259076;28;20216;-68
2022/03/27 09:31:04;;;;;;;4.53;0.90;;;;;;;9.34;37.17;102228.09;10261071;28;20226;-70
2022/03/27 09:36:11;;;;;;;5.27;1.10;;;;;;;9.85;36.71;102218.09;10259394;28;20232;-71
2022/03/27 09:41:33;;;;;;;4.33;0.80;;;;;;;10.16;35.34;102207.56;10260496;28;20967;-74
2022/03/27 09:47:00;;;;;;;4.97;0.97;;;;;;;10.65;35.86;102204.25;10260001;28;20212;-70
2022/03/27 09:52:08;;;;;;;3.60;0.80;;;;;;;11.54;35.27;102214.47;10253770;28;20240;-70
2022/03/27 09:57:18;;;;;;;4.13;0.93;;;;;;;11.51;33.21;102214.41;10256304;28;20216;-73
2022/03/27 10:02:26;;;;;;;6.57;0.90;;;;;;;12.08;33.30;102185.81;10260275;28;20698;-72
2022/03/27 10:07:35;;;;;;;2.57;0.70;;;;;;;12.21;32.71;102177.28;10253660;29;20626;-73
2022/03/27 10:12:40;;;;;;;2.50;0.83;;;;;;;12.46;31.23;102174.09;10256549;29;20642;-72
2022/03/27 10:17:47;;;;;;;3.40;0.93;;;;;;;12.22;30.50;102148.69;10257856;29;20622;-72
2022/03/27 10:22:57;;;;;;;4.30;1.17;;;;;;;12.57;31.96;102136.94;10256276;29;20660;-72
2022/03/27 10:28:02;;;;;;;5.07;1.10;;;;;;;13.20;30.95;102135.78;10251151;29;20220;-69
2022/03/27 10:33:09;;;;;;;3.03;0.77;;;;;;;13.29;31.36;102138.44;10260078;28;20801;-71
2022/03/27 10:38:20;;;;;;;3.53;1.00;;;;;;;13.30;29.18;102143.69;10258033;29;20255;-71
2022/03/27 10:43:30;;;;;;;6.10;1.10;;;;;;;13.81;29.39;102130.09;10256475;28;20674;-70
2022/03/27 10:48:38;;;;;;;4.87;0.93;;;;;;;14.14;30.24;102126.75;10256935;28;20230;-71
2022/03/27 10:54:01;;;;;;;1.67;0.53;;;;;;;14.62;29.44;102127.78;10257959;28;20307;-73
2022/03/27 10:59:10;;;;;;;7.37;2.00;;;;;;;14.73;29.63;102138.25;10259517;28;20228;-70
2022/03/27 11:04:16;;;;;;;3.63;0.90;;;;;;;14.67;29.84;102125.16;10257009;28;20243;-69
2022/03/27 11:09:40;;;;;;;4.37;1.03;;;;;;;14.66;28.17;102113.00;10255793;28;20243;-70
2022/03/27 11:15:02;;;;;;;6.07;1.23;;;;;;;15.00;29.02;102120.84;10254854;28;20242;-68
2022/03/27 11:20:10;;;;;;;6.00;1.10;;;;;;;15.48;29.44;102108.66;10254122;29;20220;-68
2022/03/27 11:25:53;;;;;;;4.63;1.40;;;;;;;15.32;28.42;102107.75;10253987;28;20234;-68
2022/03/27 11:31:33;;;;;;;6.70;1.10;;;;;;;16.71;27.69;102097.59;10246261;28;20322;-68
2022/03/27 11:36:39;;;;;;;6.80;1.77;;;;;;;17.00;26.49;102073.72;10252922;29;20264;-68
2022/03/27 11:41:47;;;;;;;4.43;1.10;;;;;;;16.10;27.23;102055.13;10253480;28;20228;-70
2022/03/27 11:46:59;;;;;;;8.80;3.60;;;;;;;17.33;28.10;102063.78;10253398;28;20254;-68
2022/03/27 11:52:15;;;;;;;3.83;1.00;;;;;;;17.84;25.88;102067.63;10247568;29;20574;-67
2022/03/27 11:57:21;;;;;;;3.97;0.87;;;;;;;17.87;27.36;102072.84;10253857;28;20816;-73
2022/03/27 12:02:42;;;;;;;10.57;3.58;;;;;;;17.84;27.14;102072.88;10259757;28;20307;-72
2022/03/27 12:07:59;;;;;;;4.33;1.20;;;;;;;18.06;27.13;102058.56;10259610;28;20674;-71
2022/03/27 12:13:08;;;;;;;3.13;0.90;;;;;;;18.73;25.53;102054.94;10257526;28;20671;-71
2022/03/27 12:18:27;;;;;;;4.30;1.40;;;;;;;18.62;25.27;102049.00;10255353;28;20705;-70
2022/03/27 12:23:35;;;;;;;6.55;0.95;;;;;;;18.23;27.75;102040.78;10263753;28;20278;-71
2022/03/27 12:33:59;;;;;;;5.90;1.77;;;;;;;18.43;27.19;102038.75;10262853;28;20275;-68
2022/03/27 12:39:13;;;;;;;3.55;1.20;;;;;;;17.54;27.04;102032.97;10262858;29;20687;-69
2022/03/27 12:44:16;;;;;;;8.85;1.20;;;;;;;17.93;27.62;102020.19;10262019;28;20215;-73
2022/03/27 12:49:19;;;;;;;4.88;1.40;;;;;;;18.08;27.22;102022.63;10265584;28;20243;-71
2022/03/27 12:54:25;;;;;;;3.63;1.30;;;;;;;19.84;25.36;102004.56;10261001;28;20286;-77
2022/03/27 12:59:28;;;;;;;3.13;1.00;;;;;;;19.70;25.63;102002.22;10269386;29;20287;-74
2022/03/27 13:04:32;;;;;;;2.78;0.98;;;;;;;19.77;24.90;101992.41;10259963;28;20227;-74
2022/03/27 13:09:36;;;;;;;5.72;1.20;;;;;;;19.20;26.25;101987.41;10259987;29;20200;-73
2022/03/27 13:14:44;;;;;;;4.53;1.30;;;;;;;17.93;26.79;101978.16;10258946;29;20210;-74
2022/03/27 13:19:47;;;;;;;3.47;1.20;;;;;;;17.86;28.01;101976.50;10259196;29;20558;-72
2022/03/27 13:24:53;;;;;;;6.75;1.27;;;;;;;17.45;27.20;101973.53;10258769;29;20617;-71
2022/03/27 13:29:56;;;;;;;4.63;1.10;;;;;;;16.63;28.50;101965.69;10257272;28;20204;-68
2022/03/27 13:34:59;;;;;;;4.63;1.40;;;;;;;15.07;29.81;101950.00;10257628;28;20244;-70
2022/03/27 13:40:05;;;;;;;4.33;1.30;;;;;;;14.35;30.20;101955.34;10257563;28;20254;-69
2022/03/27 13:45:09;;;;;;;4.20;1.13;;;;;;;13.75;32.46;101957.84;10256974;29;20220;-70
2022/03/27 13:50:12;;;;;;;5.43;1.10;;;;;;;13.41;32.91;101951.63;10256987;28;20303;-69
2022/03/27 13:55:21;;;;;;;5.87;1.20;;;;;;;12.99;32.07;101947.91;10257895;29;20303;-68
2022/03/27 14:00:25;;;;;;;4.43;1.27;;;;;;;12.64;33.35;101950.31;10256416;28;20235;-74
2022/03/27 14:05:28;;;;;;;8.57;1.40;;;;;;;13.07;33.52;101951.47;10256902;28;20320;-70
2022/03/27 14:10:33;;;;;;;3.93;1.20;;;;;;;13.16;32.63;101944.56;10256757;28;20696;-69
2022/03/27 14:15:38;;;;;;;7.53;1.10;;;;;;;13.90;34.41;101935.25;10256624;28;20343;-69
2022/03/27 14:20:42;;;;;;;4.17;1.20;;;;;;;14.42;31.36;101919.63;10257540;29;20551;-68
2022/03/27 14:25:47;;;;;;;5.30;1.30;;;;;;;14.67;30.82;101913.47;10256136;28;20708;-68
2022/03/27 14:30:50;;;;;;;5.63;1.60;;;;;;;14.10;31.64;101905.69;10255832;28;20573;-67
2022/03/27 14:35:57;;;;;;;3.30;0.93;;;;;;;14.03;32.58;101909.16;10255772;28;20312;-68
2022/03/27 14:41:02;;;;;;;9.37;2.03;;;;;;;13.70;31.65;101904.75;10255979;28;20307;-67
2022/03/27 14:46:05;;;;;;;4.30;1.40;;;;;;;13.22;32.71;101887.22;10255286;28;20223;-66
2022/03/27 14:51:09;;;;;;;6.60;1.43;;;;;;;12.94;33.68;101881.88;10256472;28;20740;-69
2022/03/27 14:56:14;;;;;;;4.73;1.63;;;;;;;12.42;34.06;101859.88;10254241;28;20216;-67
2022/03/27 15:01:18;;;;;;;5.07;1.73;;;;;;;11.98;33.81;101867.34;10254585;28;20232;-67
2022/03/27 15:06:22;;;;;;;5.83;1.53;;;;;;;11.94;34.87;101855.16;10254674;29;20240;-70
2022/03/27 15:11:27;;;;;;;3.00;0.80;;;;;;;11.62;34.40;101849.66;10254381;29;20243;-67
2022/03/27 15:16:30;;;;;;;2.60;0.87;;;;;;;11.16;35.03;101841.38;10257130;28;20238;-68
2022/03/27 15:21:34;;;;;;;4.33;1.30;;;;;;;11.00;35.14;101848.09;10253141;28;20224;-68
2022/03/27 15:26:39;;;;;;;4.77;1.40;;;;;;;10.85;36.44;101840.13;10254635;29;20220;-72
2022/03/27 15:31:43;;;;;;;5.37;1.20;;;;;;;10.86;37.89;101844.47;10255863;29;20234;-73
2022/03/27 15:36:46;;;;;;;3.93;1.30;;;;;;;11.33;35.85;101843.28;10253817;29;20689;-71
2022/03/27 15:41:51;;;;;;;4.87;1.37;;;;;;;10.92;36.48;101836.75;10253383;28;20231;-71
2022/03/27 15:46:54;;;;;;;4.87;1.43;;;;;;;10.67;36.57;101837.28;10255336;29;20231;-71
2022/03/27 15:51:58;;;;;;;8.77;1.23;;;;;;;10.44;36.58;101830.91;10253479;28;20547;-75
2022/03/27 15:57:03;;;;;;;7.23;1.30;;;;;;;10.61;36.71;101825.97;10252823;28;20222;-74
2022/03/27 16:02:07;;;;;;;3.73;1.20;;;;;;;10.52;36.75;101818.91;10257318;28;20250;-71
2022/03/27 16:07:11;;;;;;;5.50;1.23;;;;;;;10.33;36.91;101804.81;10258745;28;20559;-72
2022/03/27 16:12:19;;;;;;;8.73;3.20;;;;;;;10.28;37.30;101801.31;10257235;28;20250;-72
2022/03/27 16:17:23;;;;;;;5.53;1.43;;;;;;;10.10;38.09;101795.81;10256347;29;20299;-69
2022/03/27 16:22:28;;;;;;;3.07;1.33;;;;;;;10.13;38.11;101790.69;10257307;28;20228;-68
2022/03/27 16:27:34;;;;;;;3.93;1.20;;;;;;;9.95;37.66;101785.19;10254368;29;20815;-69
2022/03/27 16:32:38;;;;;;;4.43;1.50;;;;;;;9.97;38.08;101793.00;10255907;28;20294;-72
2022/03/27 16:37:41;;;;;;;7.57;1.60;;;;;;;9.83;38.68;101791.91;10258649;28;20196;-74
2022/03/27 16:42:46;;;;;;;5.17;1.50;;;;;;;9.83;37.92;101784.13;10258064;29;20220;-74
2022/03/27 16:47:49;;;;;;;7.57;1.70;;;;;;;9.64;39.43;101766.53;10255524;28;20653;-71
2022/03/27 16:52:53;;;;;;;7.17;1.80;;;;;;;9.51;38.92;101768.03;10257588;28;20192;-66
2022/03/27 16:57:58;;;;;;;9.13;1.70;;;;;;;9.40;39.22;101766.13;10253263;29;20702;-70
2022/03/27 17:03:01;;;;;;;5.70;1.50;;;;;;;9.18;39.58;101773.50;10252208;29;20251;-65
2022/03/27 17:08:05;;;;;;;6.47;1.90;;;;;;;9.03;39.77;101773.25;10258260;28;20204;-75
2022/03/27 17:13:10;;;;;;;6.23;1.60;;;;;;;9.10;39.55;101769.91;10264187;29;20315;-70
2022/03/27 17:18:13;;;;;;;5.53;1.67;;;;;;;9.02;39.58;101775.81;10262801;28;20285;-72
2022/03/27 17:23:17;;;;;;;5.97;2.50;;;;;;;9.00;39.92;101761.94;10268912;28;20297;-72
2022/03/27 17:28:22;;;;;;;7.20;1.97;;;;;;;8.91;41.21;101761.78;10270330;28;20220;-71
2022/03/27 17:33:26;;;;;;;9.80;1.97;;;;;;;8.90;40.25;101765.22;10264356;29;20220;-75
2022/03/27 17:38:29;;;;;;;5.30;1.50;;;;;;;8.85;40.53;101751.31;10262500;28;20246;-71
2022/03/27 17:43:34;;;;;;;30.37;12.67;;;;;;;8.65;42.62;101763.84;10264484;29;20224;-72
2022/03/27 17:48:38;;;;;;;8.63;2.93;;;;;;;8.58;42.29;101772.34;10261914;29;20220;-73
2022/03/27 17:53:41;;;;;;;8.20;2.33;;;;;;;8.39;43.37;101766.75;10265639;29;20231;-73
2022/03/27 17:58:46;;;;;;;7.13;2.10;;;;;;;8.32;44.34;101765.72;10264354;29;20230;-71
2022/03/27 18:03:50;;;;;;;12.63;2.70;;;;;;;8.18;46.36;101756.75;10262532;28;20235;-71
2022/03/27 18:08:53;;;;;;;7.33;2.47;;;;;;;8.03;46.83;101753.84;10260369;28;20230;-72
2022/03/27 18:13:58;;;;;;;7.53;2.50;;;;;;;8.12;44.35;101762.69;10260822;29;20280;-73
2022/03/27 18:19:01;;;;;;;15.27;4.90;;;;;;;8.02;45.41;101746.94;10260123;28;20300;-72
2022/03/27 18:24:25;;;;;;;10.93;3.50;;;;;;;7.91;45.79;101733.78;10271339;28;20303;-71
2022/03/27 18:29:29;;;;;;;7.60;2.60;;;;;;;7.70;47.73;101737.56;10264067;28;20325;-69
2022/03/27 18:34:33;;;;;;;11.17;3.07;;;;;;;7.75;46.99;101731.66;10261794;28;20216;-70
2022/03/27 18:39:37;;;;;;;7.30;2.40;;;;;;;7.81;47.04;101716.31;10261323;28;20220;-70
2022/03/27 18:44:42;;;;;;;8.70;3.27;;;;;;;7.81;47.62;101702.50;10261309;29;20727;-72
2022/03/27 18:49:46;;;;;;;10.23;3.77;;;;;;;7.87;46.47;101708.69;10264405;28;20243;-71
2022/03/27 18:54:49;;;;;;;13.63;3.70;;;;;;;7.89;49.27;101706.13;10263723;28;20216;-72
2022/03/27 18:59:54;;;;;;;11.83;4.20;;;;;;;7.98;46.91;101698.59;10263365;29;20226;-71
2022/03/27 19:04:57;;;;;;;17.13;4.63;;;;;;;8.03;46.35;101700.44;10261943;28;20628;-72
2022/03/27 19:10:05;;;;;;;10.73;3.90;;;;;;;7.98;47.24;101689.13;10258227;28;20964;-72
2022/03/27 19:15:13;;;;;;;9.73;3.90;;;;;;;7.93;46.95;101679.53;10259995;29;20247;-70
2022/03/27 19:20:36;;;;;;;12.67;4.70;;;;;;;7.99;46.91;101689.97;10259719;28;20230;-72
2022/03/27 19:25:45;;;;;;;14.77;6.07;;;;;;;8.02;45.77;101679.72;10259703;29;20328;-72
2022/03/27 19:30:57;;;;;;;11.90;3.07;;;;;;;8.06;45.37;101678.94;10256424;28;20220;-73
2022/03/27 19:36:00;;;;;;;9.83;3.43;;;;;;;8.10;44.75;101670.41;9915224;28;9999905;-71
2022/03/27 19:41:05;;;;;;;10.00;3.23;;;;;;;8.13;45.05;101683.41;10256890;28;20223;-71
2022/03/27 19:46:10;;;;;;;7.50;3.00;;;;;;;8.11;44.89;101675.59;10256995;28;20729;-72
2022/03/27 19:51:14;;;;;;;11.77;3.97;;;;;;;8.07;44.37;101680.69;10256739;28;20284;-72
2022/03/27 19:56:19;;;;;;;12.70;4.63;;;;;;;8.10;44.67;101671.28;10259405;29;20617;-68
2022/03/27 20:01:24;;;;;;;13.27;3.73;;;;;;;8.10;44.86;101671.28;10258103;28;20244;-73
2022/03/27 20:06:27;;;;;;;11.17;4.03;;;;;;;8.09;44.53;101679.03;10257974;28;20236;-71
2022/03/27 20:11:31;;;;;;;15.07;4.53;;;;;;;8.08;44.50;101669.50;10259823;28;20236;-71
2022/03/27 20:16:36;;;;;;;11.07;3.97;;;;;;;8.14;44.53;101667.06;10260163;28;20224;-70
2022/03/27 20:21:42;;;;;;;11.63;5.47;;;;;;;8.22;44.51;101665.50;10258408;28;20323;-75
2022/03/27 20:26:47;;;;;;;10.47;4.70;;;;;;;8.26;44.26;101659.59;10259233;28;20698;-71
2022/03/27 20:31:52;;;;;;;10.63;3.97;;;;;;;8.26;43.86;101643.19;10260669;28;20299;-72
2022/03/27 20:36:55;;;;;;;12.43;4.30;;;;;;;8.26;44.17;101635.44;10257961;29;20532;-74
2022/03/27 20:42:00;;;;;;;11.43;4.10;;;;;;;8.25;44.54;101618.19;10262379;28;20242;-70
2022/03/27 20:47:06;;;;;;;11.10;4.10;;;;;;;8.21;44.28;101622.38;10269366;28;20295;-71
2022/03/27 20:52:09;;;;;;;13.73;5.43;;;;;;;8.15;44.38;101609.31;10262993;28;20299;-71
2022/03/27 20:57:13;;;;;;;14.70;4.00;;;;;;;8.16;44.40;101609.34;10260380;28;20212;-70
2022/03/27 21:02:20;;;;;;;12.90;4.57;;;;;;;8.15;44.88;101597.28;10267651;28;20234;-70
2022/03/27 21:07:24;;;;;;;14.43;6.33;;;;;;;8.03;45.39;101593.56;10260684;29;20212;-66
2022/03/27 21:12:28;;;;;;;12.27;5.07;;;;;;;8.03;44.60;101593.56;10261393;29;20218;-70
2022/03/27 21:17:33;;;;;;;11.93;4.77;;;;;;;8.04;45.17;101582.41;10263717;28;20220;-74
2022/03/27 21:22:40;;;;;;;11.67;4.83;;;;;;;7.96;45.54;101581.34;10265490;29;20224;-71
2022/03/27 21:27:45;;;;;;;13.60;5.87;;;;;;;7.84;45.56;101573.34;10265938;29;20648;-72
2022/03/27 21:32:51;;;;;;;13.47;4.53;;;;;;;7.75;46.17;101574.03;10268393;28;20627;-71
2022/03/27 21:37:55;;;;;;;13.57;5.20;;;;;;;7.65;46.68;101573.81;10261957;28;20204;-71
2022/03/27 21:42:59;;;;;;;15.00;4.87;;;;;;;7.46;46.98;101561.34;10258256;29;20212;-68
2022/03/27 21:48:06;;;;;;;13.13;5.87;;;;;;;7.37;47.50;101545.69;10262716;29;20285;-67
2022/03/27 21:53:10;;;;;;;10.57;5.00;;;;;;;7.28;47.79;101536.03;10265990;28;20218;-68
2022/03/27 21:58:14;;;;;;;15.57;5.80;;;;;;;7.20;48.33;101524.63;10265034;29;20206;-70
2022/03/27 22:03:21;;;;;;;10.93;5.20;;;;;;;7.12;48.30;101521.03;10264975;28;20683;-70
2022/03/27 22:08:24;;;;;;;15.53;5.07;;;;;;;7.22;48.48;101520.38;10257349;28;20210;-72
2022/03/27 22:13:28;;;;;;;46.73;26.53;;;;;;;7.19;48.59;101522.03;10257267;28;20200;-68
2022/03/27 22:18:33;;;;;;;11.27;5.20;;;;;;;7.13;48.56;101521.91;10256727;28;20204;-73
2022/03/27 22:23:36;;;;;;;17.37;5.27;;;;;;;7.07;49.00;101513.16;10256862;28;20706;-70
2022/03/27 22:28:42;;;;;;;11.37;4.73;;;;;;;7.06;49.23;101495.06;10256378;28;20220;-70
2022/03/27 22:33:47;;;;;;;13.93;5.07;;;;;;;7.07;49.50;101495.94;10259469;28;20200;-71
2022/03/27 22:38:52;;;;;;;13.37;4.37;;;;;;;7.16;49.19;101497.03;10256224;28;20224;-71
2022/03/27 22:43:55;;;;;;;13.73;4.80;;;;;;;7.13;49.49;101496.09;10255684;29;20211;-69
2022/03/27 22:49:00;;;;;;;13.57;5.97;;;;;;;7.19;48.42;101480.72;10255827;28;20275;-71
2022/03/27 22:54:06;;;;;;;13.30;4.83;;;;;;;7.22;48.55;101478.19;10255450;28;20224;-70
2022/03/27 22:59:10;;;;;;;13.60;4.97;;;;;;;7.15;48.86;101464.28;10255646;28;20880;-66
2022/03/27 23:04:14;;;;;;;12.37;4.60;;;;;;;7.15;48.61;101464.28;10259180;28;20231;-71
2022/03/27 23:09:18;;;;;;;9.83;4.50;;;;;;;7.19;48.35;101453.19;10258166;28;20307;-68
2022/03/27 23:14:24;;;;;;;15.23;4.53;;;;;;;7.10;48.30;101442.66;10258012;29;20228;-67
2022/03/27 23:19:29;;;;;;;12.73;3.97;;;;;;;7.09;49.16;101427.16;10256092;28;20228;-73
2022/03/27 23:24:32;;;;;;;10.30;4.33;;;;;;;7.05;48.75;101421.06;10254483;28;20378;-73
2022/03/27 23:29:35;;;;;;;11.47;3.70;;;;;;;7.00;49.23;101407.19;10254197;28;20248;-73
2022/03/27 23:34:40;;;;;;;12.13;4.47;;;;;;;6.95;48.86;101409.66;10257488;28;20690;-72
2022/03/27 23:39:43;;;;;;;11.47;3.87;;;;;;;6.86;49.55;101394.00;10258562;28;20270;-68